| time (UTC) | temp F | wind direction | speed MPH | gust MPH | rain 1hr in | rain 24hr in | rain mn in | humidity % | barometer mb |
| 20260507152528 | 61 | 0 | 0.0 | 6.0 | 0.00 | 0.15 | 0.14 | 68 | 1013.7 |
| 20260507152031 | 61 | 208 | 1.0 | 6.0 | 0.00 | 0.15 | 0.14 | 66 | 1013.7 |
| 20260507151540 | 60 | 0 | 0.0 | 1.0 | 0.00 | 0.15 | 0.14 | 69 | 1013.7 |
| 20260507151026 | 59 | 0 | 0.0 | 1.0 | 0.00 | 0.15 | 0.14 | 71 | 1013.6 |
| 20260507150527 | 58 | 0 | 0.0 | 1.0 | 0.00 | 0.15 | 0.14 | 73 | 1013.7 |
| 20260507150041 | 58 | 0 | 0.0 | 0.0 | 0.00 | 0.15 | 0.14 | 73 | 1013.7 |
| 20260507145528 | 57 | 0 | 0.0 | 0.0 | 0.00 | 0.16 | 0.14 | 74 | 1013.8 |
| 20260507145027 | 57 | 0 | 0.0 | 1.0 | 0.00 | 0.16 | 0.14 | 74 | 1013.8 |
| 20260507144537 | 58 | 0 | 0.0 | 2.0 | 0.00 | 0.16 | 0.14 | 74 | 1013.9 |
| 20260507144027 | 58 | 0 | 0.0 | 2.0 | 0.00 | 0.16 | 0.14 | 73 | 1013.8 |
| 20260507143526 | 58 | 0 | 0.0 | 4.0 | 0.00 | 0.16 | 0.14 | 72 | 1013.9 |
| 20260507143051 | 59 | 0 | 0.0 | 4.0 | 0.00 | 0.16 | 0.14 | 68 | 1013.9 |
| 20260507142526 | 59 | 213 | 1.0 | 4.0 | 0.00 | 0.16 | 0.14 | 66 | 1013.8 |
| 20260507142030 | 59 | 207 | 0.0 | 5.0 | 0.00 | 0.16 | 0.14 | 71 | 1013.8 |
| 20260507141548 | 59 | 0 | 0.0 | 5.0 | 0.00 | 0.16 | 0.14 | 71 | 1013.9 |
| 20260507141028 | 61 | 208 | 2.0 | 5.0 | 0.00 | 0.16 | 0.14 | 62 | 1013.9 |
| 20260507140530 | 62 | 199 | 1.0 | 5.0 | 0.00 | 0.16 | 0.14 | 64 | 1013.9 |
| 20260507140041 | 62 | 211 | 2.0 | 5.0 | 0.00 | 0.16 | 0.14 | 63 | 1013.9 |
| 20260507135528 | 61 | 211 | 1.0 | 5.0 | 0.00 | 0.25 | 0.14 | 67 | 1013.9 |
| 20260507135031 | 59 | 0 | 0.0 | 2.0 | 0.00 | 0.25 | 0.14 | 73 | 1013.9 |
| 20260507134539 | 59 | 201 | 0.0 | 2.0 | 0.00 | 0.25 | 0.14 | 74 | 1014.0 |
| 20260507134026 | 59 | 0 | 0.0 | 2.0 | 0.00 | 0.25 | 0.14 | 74 | 1014.1 |
| 20260507133527 | 59 | 0 | 0.0 | 5.0 | 0.00 | 0.25 | 0.14 | 75 | 1014.1 |
| 20260507133107 | 59 | 212 | 2.0 | 5.0 | 0.00 | 0.25 | 0.14 | 69 | 1014.1 |
| 20260507132534 | 60 | 231 | 1.0 | 5.0 | 0.00 | 0.25 | 0.14 | 64 | 1014.1 |
| 20260507132026 | 60 | 0 | 1.0 | 5.0 | 0.00 | 0.25 | 0.14 | 68 | 1014.2 |
| 20260507131543 | 60 | 217 | 0.0 | 4.0 | 0.00 | 0.25 | 0.14 | 68 | 1014.2 |
| 20260507131026 | 60 | 221 | 1.0 | 4.0 | 0.00 | 0.25 | 0.14 | 67 | 1014.2 |
| 20260507130529 | 58 | 228 | 0.0 | 3.0 | 0.00 | 0.25 | 0.14 | 76 | 1014.2 |
| 20260507130045 | 58 | 0 | 0.0 | 4.0 | 0.00 | 0.25 | 0.14 | 76 | 1014.3 |
| 20260507125526 | 59 | 0 | 0.0 | 4.0 | 0.00 | 0.33 | 0.14 | 75 | 1014.3 |
| 20260507125026 | 60 | 0 | 1.0 | 4.0 | 0.00 | 0.33 | 0.14 | 70 | 1014.3 |
| 20260507124536 | 60 | 0 | 0.0 | 4.0 | 0.00 | 0.33 | 0.14 | 71 | 1014.4 |
| 20260507124026 | 58 | 0 | 0.0 | 4.0 | 0.00 | 0.33 | 0.14 | 76 | 1014.4 |
| 20260507123531 | 57 | 0 | 0.0 | 5.0 | 0.00 | 0.33 | 0.14 | 79 | 1014.4 |
| 20260507123047 | 57 | 209 | 1.0 | 5.0 | 0.00 | 0.33 | 0.14 | 76 | 1014.5 |
| 20260507122526 | 57 | 209 | 1.0 | 5.0 | 0.00 | 0.33 | 0.14 | 74 | 1014.5 |
| 20260507122026 | 57 | 200 | 2.0 | 5.0 | 0.00 | 0.33 | 0.14 | 74 | 1014.4 |
| 20260507121542 | 57 | 180 | 2.0 | 5.0 | 0.00 | 0.33 | 0.14 | 76 | 1014.5 |
| 20260507121027 | 57 | 204 | 0.0 | 5.0 | 0.00 | 0.33 | 0.14 | 77 | 1014.5 |
| 20260507120526 | 56 | 0 | 1.0 | 5.0 | 0.00 | 0.33 | 0.14 | 78 | 1014.5 |
| 20260507120039 | 56 | 215 | 1.0 | 4.0 | 0.00 | 0.33 | 0.14 | 77 | 1014.5 |
| 20260507115527 | 56 | 0 | 1.0 | 6.0 | 0.00 | 0.37 | 0.14 | 81 | 1014.5 |
| 20260507115027 | 56 | 210 | 1.0 | 6.0 | 0.00 | 0.37 | 0.14 | 75 | 1014.5 |
| 20260507114549 | 56 | 205 | 1.0 | 5.0 | 0.00 | 0.37 | 0.14 | 75 | 1014.6 |
| 20260507114026 | 57 | 219 | 1.0 | 5.0 | 0.00 | 0.37 | 0.14 | 75 | 1014.5 |
| 20260507113527 | 58 | 0 | 2.0 | 4.0 | 0.00 | 0.37 | 0.14 | 75 | 1014.5 |
| 20260507113038 | 58 | 204 | 1.0 | 4.0 | 0.00 | 0.37 | 0.14 | 78 | 1014.6 |
| 20260507112526 | 55 | 220 | 0.0 | 3.0 | 0.00 | 0.37 | 0.14 | 81 | 1014.6 |
| 20260507112029 | 54 | 0 | 0.0 | 3.0 | 0.00 | 0.37 | 0.14 | 87 | 1014.6 |
| 20260507111537 | 54 | 0 | 0.0 | 4.0 | 0.00 | 0.37 | 0.14 | 87 | 1014.7 |
| 20260507111026 | 53 | 0 | 0.0 | 4.0 | 0.00 | 0.37 | 0.14 | 88 | 1014.7 |
| 20260507110526 | 54 | 0 | 0.0 | 3.0 | 0.00 | 0.37 | 0.14 | 88 | 1014.8 |
| 20260507110042 | 54 | 0 | 0.0 | 3.0 | 0.00 | 0.37 | 0.14 | 86 | 1014.8 |
| 20260507105525 | 54 | 0 | 1.0 | 4.0 | 0.00 | 0.42 | 0.14 | 82 | 1014.8 |
| 20260507105028 | 55 | 0 | 0.0 | 4.0 | 0.00 | 0.42 | 0.14 | 83 | 1014.8 |
| 20260507104538 | 54 | 0 | 0.0 | 4.0 | 0.00 | 0.42 | 0.14 | 83 | 1014.9 |
| 20260507104027 | 54 | 0 | 0.0 | 3.0 | 0.00 | 0.42 | 0.14 | 84 | 1014.8 |
| 20260507103529 | 56 | 0 | 0.0 | 5.0 | 0.00 | 0.42 | 0.14 | 81 | 1014.8 |
| 20260507103044 | 56 | 194 | 0.0 | 5.0 | 0.00 | 0.42 | 0.14 | 80 | 1014.9 |
| 20260507102527 | 58 | 213 | 1.0 | 5.0 | 0.00 | 0.42 | 0.14 | 78 | 1014.8 |
| 20260507102027 | 57 | 0 | 1.0 | 4.0 | 0.00 | 0.42 | 0.14 | 79 | 1014.9 |
| 20260507101540 | 55 | 0 | 0.0 | 3.0 | 0.00 | 0.42 | 0.14 | 87 | 1014.8 |
| 20260507101026 | 53 | 0 | 0.0 | 3.0 | 0.00 | 0.42 | 0.14 | 90 | 1014.9 |
| 20260507100526 | 54 | 0 | 0.0 | 2.0 | 0.00 | 0.42 | 0.14 | 88 | 1015.0 |
| 20260507100039 | 54 | 0 | 0.0 | 4.0 | 0.00 | 0.42 | 0.14 | 81 | 1015.1 |
| 20260507095526 | 54 | 0 | 1.0 | 7.0 | 0.00 | 0.43 | 0.14 | 80 | 1015.1 |
| 20260507095025 | 55 | 227 | 1.0 | 8.0 | 0.00 | 0.43 | 0.14 | 79 | 1015.0 |
| 20260507094547 | 55 | 188 | 3.0 | 8.0 | 0.00 | 0.43 | 0.14 | 81 | 1015.1 |
| 20260507094026 | 55 | 216 | 1.0 | 8.0 | 0.00 | 0.43 | 0.14 | 84 | 1015.1 |
| 20260507093526 | 55 | 0 | 0.0 | 8.0 | 0.00 | 0.43 | 0.14 | 84 | 1015.1 |
| 20260507093040 | 55 | 213 | 3.0 | 8.0 | 0.00 | 0.43 | 0.14 | 83 | 1015.1 |
| 20260507092526 | 54 | 230 | 1.0 | 6.0 | 0.00 | 0.43 | 0.14 | 84 | 1015.1 |
| 20260507092026 | 54 | 223 | 3.0 | 10.0 | 0.00 | 0.43 | 0.14 | 86 | 1015.1 |
| 20260507091538 | 53 | 0 | 3.0 | 10.0 | 0.00 | 0.43 | 0.14 | 86 | 1015.0 |
| 20260507091027 | 53 | 0 | 0.0 | 3.0 | 0.00 | 0.43 | 0.14 | 88 | 1014.9 |
| 20260507090526 | 53 | 203 | 0.0 | 4.0 | 0.00 | 0.43 | 0.14 | 87 | 1014.9 |
| 20260507090037 | 53 | 0 | 0.0 | 4.0 | 0.00 | 0.43 | 0.14 | 90 | 1014.9 |
| 20260507085526 | 52 | 203 | 1.0 | 4.0 | 0.00 | 0.43 | 0.14 | 93 | 1014.9 |
| 20260507085027 | 51 | 0 | 1.0 | 4.0 | 0.00 | 0.43 | 0.14 | 94 | 1014.8 |
| 20260507084540 | 51 | 203 | 0.0 | 2.0 | 0.00 | 0.43 | 0.14 | 95 | 1014.8 |
| 20260507084027 | 50 | 0 | 0.0 | 0.0 | 0.00 | 0.43 | 0.14 | 94 | 1014.7 |
| 20260507083526 | 50 | 0 | 0.0 | 0.0 | 0.00 | 0.43 | 0.14 | 94 | 1014.7 |
| 20260507083038 | 51 | 0 | 0.0 | 4.0 | 0.00 | 0.43 | 0.14 | 93 | 1014.7 |
| 20260507082527 | 51 | 0 | 0.0 | 4.0 | 0.00 | 0.43 | 0.14 | 93 | 1014.7 |
| 20260507082026 | 51 | 0 | 1.0 | 4.0 | 0.00 | 0.43 | 0.14 | 93 | 1014.7 |
| 20260507081539 | 51 | 203 | 1.0 | 4.0 | 0.00 | 0.43 | 0.14 | 94 | 1014.7 |
| 20260507081028 | 51 | 0 | 1.0 | 3.0 | 0.00 | 0.43 | 0.14 | 95 | 1014.6 |
| 20260507080525 | 50 | 207 | 0.0 | 3.0 | 0.00 | 0.43 | 0.14 | 96 | 1014.7 |
| 20260507080041 | 50 | 0 | 0.0 | 3.0 | 0.00 | 0.43 | 0.14 | 96 | 1014.7 |
| 20260507075526 | 50 | 0 | 0.0 | 2.0 | 0.00 | 0.43 | 0.14 | 97 | 1014.7 |
| 20260507075026 | 49 | 0 | 0.0 | 2.0 | 0.00 | 0.43 | 0.14 | 97 | 1014.6 |
| 20260507074542 | 49 | 0 | 0.0 | 1.0 | 0.00 | 0.43 | 0.14 | 97 | 1014.6 |
| 20260507074027 | 49 | 0 | 0.0 | 1.0 | 0.00 | 0.43 | 0.14 | 97 | 1014.5 |
| 20260507073526 | 49 | 0 | 0.0 | 0.0 | 0.00 | 0.43 | 0.14 | 97 | 1014.5 |
| 20260507073043 | 49 | 0 | 0.0 | 1.0 | 0.00 | 0.43 | 0.14 | 97 | 1014.5 |
| 20260507072527 | 49 | 0 | 0.0 | 1.0 | 0.01 | 0.43 | 0.14 | 97 | 1014.5 |
| 20260507072026 | 49 | 0 | 0.0 | 0.0 | 0.01 | 0.43 | 0.14 | 97 | 1014.5 |
| 20260507071539 | 49 | 0 | 0.0 | 1.0 | 0.01 | 0.43 | 0.14 | 97 | 1014.4 |
| 20260507071026 | 49 | 0 | 0.0 | 1.0 | 0.01 | 0.43 | 0.14 | 97 | 1014.4 |
| 20260507070526 | 49 | 0 | 0.0 | 0.0 | 0.00 | 0.42 | 0.13 | 97 | 1014.3 |
| 20260507070045 | 49 | 0 | 0.0 | 0.0 | 0.01 | 0.42 | 0.13 | 97 | 1014.3 |
| 20260507065526 | 49 | 0 | 0.0 | 0.0 | 0.01 | 0.42 | 0.13 | 97 | 1014.3 |
| 20260507065026 | 49 | 0 | 0.0 | 0.0 | 0.01 | 0.42 | 0.13 | 97 | 1014.2 |
| 20260507064545 | 49 | 0 | 0.0 | 0.0 | 0.02 | 0.42 | 0.13 | 97 | 1014.3 |
| 20260507064028 | 49 | 0 | 0.0 | 0.0 | 0.02 | 0.42 | 0.13 | 97 | 1014.2 |
| 20260507063526 | 48 | 0 | 0.0 | 0.0 | 0.02 | 0.42 | 0.13 | 97 | 1014.2 |
| 20260507063043 | 48 | 0 | 0.0 | 0.0 | 0.02 | 0.42 | 0.13 | 97 | 1014.2 |
| 20260507062526 | 48 | 0 | 0.0 | 0.0 | 0.01 | 0.41 | 0.12 | 97 | 1014.2 |
| 20260507062026 | 48 | 0 | 0.0 | 0.0 | 0.01 | 0.41 | 0.12 | 97 | 1014.2 |
| 20260507061539 | 48 | 0 | 0.0 | 0.0 | 0.01 | 0.41 | 0.12 | 97 | 1014.2 |
| 20260507061025 | 48 | 0 | 0.0 | 0.0 | 0.02 | 0.41 | 0.12 | 97 | 1014.1 |
| 20260507060526 | 48 | 0 | 0.0 | 0.0 | 0.02 | 0.41 | 0.12 | 97 | 1014.1 |
| 20260507060039 | 48 | 0 | 0.0 | 0.0 | 0.01 | 0.40 | 0.11 | 97 | 1014.0 |
| 20260507055527 | 48 | 0 | 0.0 | 0.0 | 0.01 | 0.40 | 0.11 | 97 | 1014.0 |
| 20260507055026 | 48 | 0 | 0.0 | 0.0 | 0.01 | 0.40 | 0.11 | 97 | 1014.0 |
| 20260507054538 | 48 | 0 | 0.0 | 0.0 | 0.00 | 0.40 | 0.11 | 97 | 1013.9 |
| 20260507054026 | 47 | 0 | 0.0 | 0.0 | 0.01 | 0.40 | 0.11 | 97 | 1013.9 |
| 20260507053526 | 47 | 0 | 0.0 | 0.0 | 0.01 | 0.40 | 0.11 | 97 | 1013.9 |
| 20260507053037 | 47 | 0 | 0.0 | 0.0 | 0.01 | 0.40 | 0.11 | 97 | 1013.7 |
| 20260507052526 | 47 | 0 | 0.0 | 0.0 | 0.01 | 0.40 | 0.11 | 97 | 1013.7 |
| 20260507052026 | 47 | 0 | 0.0 | 0.0 | 0.01 | 0.40 | 0.11 | 97 | 1013.6 |
| 20260507051537 | 47 | 0 | 0.0 | 0.0 | 0.01 | 0.40 | 0.11 | 97 | 1013.7 |
| 20260507051025 | 47 | 0 | 0.0 | 0.0 | 0.00 | 0.39 | 0.10 | 97 | 1013.5 |
| 20260507050526 | 47 | 0 | 0.0 | 0.0 | 0.01 | 0.39 | 0.10 | 97 | 1013.5 |
| 20260507050041 | 47 | 0 | 0.0 | 0.0 | 0.01 | 0.39 | 0.10 | 97 | 1013.3 |
| 20260507045527 | 47 | 0 | 0.0 | 0.0 | 0.01 | 0.39 | 0.10 | 97 | 1013.3 |
| 20260507045029 | 47 | 0 | 0.0 | 0.0 | 0.01 | 0.39 | 0.10 | 97 | 1013.3 |
| 20260507044555 | 47 | 0 | 0.0 | 0.0 | 0.01 | 0.39 | 0.10 | 97 | 1013.2 |
| 20260507044029 | 47 | 0 | 0.0 | 0.0 | 0.00 | 0.38 | 0.09 | 97 | 1013.2 |
| 20260507043525 | 47 | 0 | 0.0 | 0.0 | 0.00 | 0.38 | 0.09 | 97 | 1013.1 |
| 20260507043041 | 47 | 0 | 0.0 | 0.0 | 0.00 | 0.38 | 0.09 | 97 | 1013.1 |
| 20260507042526 | 47 | 0 | 0.0 | 0.0 | 0.00 | 0.38 | 0.09 | 97 | 1013.0 |
| 20260507042030 | 47 | 0 | 0.0 | 0.0 | 0.00 | 0.38 | 0.09 | 97 | 1013.1 |
| 20260507041545 | 47 | 0 | 0.0 | 0.0 | 0.00 | 0.38 | 0.09 | 97 | 1013.0 |
| 20260507041026 | 47 | 0 | 0.0 | 0.0 | 0.01 | 0.38 | 0.09 | 97 | 1013.0 |
| 20260507040527 | 47 | 0 | 0.0 | 0.0 | 0.00 | 0.37 | 0.08 | 97 | 1013.0 |
| 20260507040043 | 47 | 0 | 0.0 | 0.0 | 0.00 | 0.37 | 0.08 | 97 | 1012.9 |
| 20260507035529 | 47 | 0 | 0.0 | 0.0 | 0.00 | 0.37 | 0.08 | 97 | 1012.9 |
| 20260507035026 | 47 | 0 | 0.0 | 0.0 | 0.01 | 0.37 | 0.08 | 97 | 1012.9 |
| 20260507034542 | 47 | 0 | 0.0 | 0.0 | 0.01 | 0.37 | 0.08 | 97 | 1012.9 |
| 20260507034027 | 47 | 0 | 0.0 | 0.0 | 0.01 | 0.37 | 0.08 | 97 | 1012.9 |
| 20260507033526 | 47 | 0 | 0.0 | 0.0 | 0.02 | 0.37 | 0.08 | 97 | 1012.8 |
| 20260507033050 | 47 | 0 | 0.0 | 0.0 | 0.02 | 0.37 | 0.08 | 97 | 1012.8 |
| 20260507032527 | 47 | 0 | 0.0 | 0.0 | 0.02 | 0.37 | 0.08 | 97 | 1012.8 |
| 20260507032033 | 47 | 0 | 0.0 | 0.0 | 0.02 | 0.37 | 0.08 | 97 | 1012.8 |
| 20260507031553 | 47 | 0 | 0.0 | 0.0 | 0.03 | 0.37 | 0.08 | 97 | 1012.8 |
| 20260507031027 | 46 | 0 | 0.0 | 0.0 | 0.02 | 0.37 | 0.07 | 97 | 1012.7 |
| 20260507030526 | 46 | 0 | 0.0 | 0.0 | 0.02 | 0.37 | 0.07 | 97 | 1012.7 |
| 20260507030100 | 46 | 0 | 0.0 | 0.0 | 0.03 | 0.37 | 0.07 | 97 | 1012.7 |
| 20260507025525 | 46 | 0 | 0.0 | 0.0 | 0.03 | 0.37 | 0.07 | 97 | 1012.7 |
| 20260507025028 | 46 | 0 | 0.0 | 0.0 | 0.02 | 0.36 | 0.07 | 97 | 1012.7 |
| 20260507024604 | 46 | 0 | 0.0 | 0.0 | 0.03 | 0.36 | 0.07 | 97 | 1012.7 |
| 20260507024026 | 46 | 0 | 0.0 | 0.0 | 0.03 | 0.36 | 0.07 | 97 | 1012.7 |
| 20260507023526 | 47 | 0 | 0.0 | 0.0 | 0.03 | 0.35 | 0.06 | 97 | 1012.7 |
| 20260507023037 | 47 | 0 | 0.0 | 0.0 | 0.03 | 0.35 | 0.06 | 97 | 1012.7 |
| 20260507022526 | 47 | 0 | 0.0 | 0.0 | 0.03 | 0.35 | 0.06 | 97 | 1012.6 |
| 20260507022026 | 47 | 0 | 0.0 | 0.0 | 0.03 | 0.34 | 0.05 | 97 | 1012.6 |
| 20260507021551 | 46 | 0 | 0.0 | 0.0 | 0.03 | 0.34 | 0.05 | 97 | 1012.5 |
| 20260507021026 | 47 | 0 | 0.0 | 0.0 | 0.03 | 0.34 | 0.05 | 97 | 1012.5 |
| 20260507020526 | 46 | 0 | 0.0 | 0.0 | 0.03 | 0.34 | 0.05 | 97 | 1012.4 |
| 20260507020053 | 47 | 0 | 0.0 | 0.0 | 0.03 | 0.33 | 0.04 | 97 | 1012.4 |
| 20260507015525 | 47 | 0 | 0.0 | 0.0 | 0.03 | 0.33 | 0.04 | 97 | 1012.4 |
| 20260507015026 | 47 | 0 | 0.0 | 0.0 | 0.03 | 0.33 | 0.04 | 97 | 1012.3 |
| 20260507014549 | 47 | 0 | 0.0 | 0.0 | 0.03 | 0.33 | 0.03 | 97 | 1012.3 |
| 20260507014027 | 47 | 0 | 0.0 | 0.0 | 0.03 | 0.33 | 0.03 | 97 | 1012.3 |
| 20260507013526 | 47 | 0 | 0.0 | 0.0 | 0.02 | 0.32 | 0.03 | 97 | 1012.2 |
| 20260507013041 | 47 | 0 | 0.0 | 0.0 | 0.02 | 0.32 | 0.03 | 97 | 1012.3 |
| 20260507012529 | 47 | 0 | 0.0 | 0.0 | 0.01 | 0.31 | 0.02 | 97 | 1012.2 |
| 20260507012027 | 47 | 0 | 0.0 | 0.0 | 0.01 | 0.31 | 0.02 | 97 | 1012.2 |
| 20260507011544 | 47 | 0 | 0.0 | 0.0 | 0.00 | 0.30 | 0.01 | 97 | 1012.2 |
| 20260507011031 | 47 | 0 | 0.0 | 0.0 | 0.00 | 0.30 | 0.01 | 97 | 1012.2 |
| 20260507010526 | 47 | 0 | 0.0 | 0.0 | 0.00 | 0.30 | 0.01 | 97 | 1012.1 |
| 20260507010043 | 47 | 0 | 0.0 | 0.0 | 0.00 | 0.30 | 0.01 | 97 | 1012.1 |
| 20260507005528 | 47 | 0 | 0.0 | 0.0 | 0.00 | 0.30 | 0.01 | 97 | 1012.1 |
| 20260507005032 | 47 | 0 | 0.0 | 0.0 | 0.00 | 0.29 | 0.00 | 97 | 1012.1 |
| 20260507004536 | 47 | 0 | 0.0 | 0.0 | 0.00 | 0.29 | 0.00 | 97 | 1012.0 |
| 20260507004027 | 47 | 0 | 0.0 | 0.0 | 0.00 | 0.29 | 0.00 | 97 | 1012.0 |
| 20260507003526 | 47 | 0 | 0.0 | 0.0 | 0.00 | 0.29 | 0.00 | 97 | 1012.0 |
| 20260507003039 | 47 | 0 | 0.0 | 0.0 | 0.00 | 0.29 | 0.00 | 97 | 1012.0 |
| 20260507002526 | 47 | 0 | 0.0 | 0.0 | 0.00 | 0.29 | 0.00 | 97 | 1011.9 |
| 20260507002026 | 47 | 0 | 0.0 | 0.0 | 0.00 | 0.29 | 0.00 | 97 | 1011.9 |
| 20260507001539 | 47 | 0 | 0.0 | 0.0 | 0.00 | 0.29 | 0.00 | 97 | 1011.8 |
| 20260507001025 | 47 | 0 | 0.0 | 0.0 | 0.00 | 0.29 | 0.00 | 97 | 1011.8 |
| 20260507000526 | 47 | 0 | 0.0 | 0.0 | 0.00 | 0.29 | 0.00 | 97 | 1011.7 |
| 20260507000039 | 47 | 0 | 0.0 | 0.0 | 0.00 | 0.29 | 0.00 | 97 | 1011.7 |
| 20260506235526 | 47 | 0 | 0.0 | 0.0 | 0.00 | 0.29 | 0.00 | 97 | 1011.8 |
| 20260506235025 | 47 | 0 | 0.0 | 0.0 | 0.00 | 0.29 | 0.00 | 97 | 1011.7 |
| 20260506234551 | 47 | 0 | 0.0 | 0.0 | 0.00 | 0.29 | 0.00 | 97 | 1011.8 |
| 20260506234025 | 47 | 0 | 0.0 | 0.0 | 0.00 | 0.29 | 0.00 | 97 | 1011.8 |
| 20260506233527 | 47 | 0 | 0.0 | 0.0 | 0.00 | 0.29 | 0.00 | 97 | 1011.8 |
| 20260506233046 | 47 | 0 | 0.0 | 0.0 | 0.00 | 0.29 | 0.00 | 97 | 1011.9 |
| 20260506232526 | 47 | 0 | 0.0 | 0.0 | 0.00 | 0.29 | 0.00 | 97 | 1011.9 |
| 20260506232025 | 47 | 0 | 0.0 | 0.0 | 0.00 | 0.29 | 0.00 | 97 | 1011.8 |
| 20260506231549 | 47 | 0 | 0.0 | 0.0 | 0.00 | 0.29 | 0.00 | 97 | 1011.9 |
| 20260506231026 | 47 | 0 | 0.0 | 0.0 | 0.00 | 0.29 | 0.00 | 97 | 1011.8 |
| 20260506230529 | 48 | 0 | 0.0 | 0.0 | 0.00 | 0.29 | 0.00 | 97 | 1011.8 |
| 20260506230041 | 48 | 0 | 0.0 | 0.0 | 0.00 | 0.29 | 0.00 | 97 | 1011.8 |
| 20260506225526 | 48 | 0 | 0.0 | 0.0 | 0.00 | 0.29 | 0.00 | 97 | 1011.8 |
| 20260506225030 | 48 | 0 | 0.0 | 0.0 | 0.00 | 0.29 | 0.00 | 97 | 1011.8 |
| 20260506224542 | 48 | 0 | 0.0 | 0.0 | 0.00 | 0.29 | 0.00 | 97 | 1011.8 |
| 20260506224025 | 48 | 0 | 0.0 | 0.0 | 0.00 | 0.29 | 0.00 | 97 | 1011.8 |
| 20260506223527 | 48 | 0 | 0.0 | 0.0 | 0.00 | 0.29 | 0.00 | 97 | 1011.8 |
| 20260506223038 | 48 | 0 | 0.0 | 0.0 | 0.00 | 0.29 | 0.00 | 97 | 1011.8 |
| 20260506222526 | 48 | 0 | 0.0 | 0.0 | 0.00 | 0.29 | 0.00 | 97 | 1011.8 |
| 20260506222027 | 48 | 0 | 0.0 | 0.0 | 0.00 | 0.29 | 0.00 | 97 | 1011.8 |
| 20260506221538 | 48 | 0 | 0.0 | 0.0 | 0.00 | 0.29 | 0.00 | 97 | 1011.8 |
| 20260506221026 | 48 | 0 | 0.0 | 0.0 | 0.00 | 0.29 | 0.00 | 97 | 1011.8 |
| 20260506220526 | 48 | 0 | 0.0 | 0.0 | 0.00 | 0.29 | 0.00 | 97 | 1011.9 |
| 20260506220037 | 48 | 0 | 0.0 | 0.0 | 0.00 | 0.29 | 0.00 | 97 | 1011.8 |
| 20260506215526 | 48 | 0 | 0.0 | 0.0 | 0.00 | 0.29 | 0.29 | 97 | 1011.9 |
| 20260506215026 | 48 | 0 | 0.0 | 0.0 | 0.00 | 0.29 | 0.29 | 97 | 1011.8 |
| 20260506214537 | 48 | 0 | 0.0 | 0.0 | 0.00 | 0.29 | 0.29 | 97 | 1011.8 |
| 20260506214029 | 48 | 0 | 0.0 | 0.0 | 0.00 | 0.29 | 0.29 | 97 | 1011.8 |
| 20260506213526 | 48 | 0 | 0.0 | 0.0 | 0.00 | 0.29 | 0.29 | 97 | 1011.7 |
| 20260506213042 | 48 | 0 | 0.0 | 0.0 | 0.00 | 0.29 | 0.29 | 97 | 1011.8 |
| 20260506212527 | 48 | 0 | 0.0 | 0.0 | 0.00 | 0.29 | 0.29 | 97 | 1011.8 |
| 20260506212028 | 48 | 0 | 0.0 | 0.0 | 0.00 | 0.29 | 0.29 | 97 | 1011.7 |
| 20260506211539 | 48 | 0 | 0.0 | 0.0 | 0.00 | 0.29 | 0.29 | 97 | 1011.7 |
| 20260506211026 | 48 | 0 | 0.0 | 0.0 | 0.00 | 0.29 | 0.29 | 97 | 1011.7 |
| 20260506210526 | 48 | 0 | 0.0 | 0.0 | 0.00 | 0.29 | 0.29 | 97 | 1011.7 |
| 20260506210038 | 48 | 0 | 0.0 | 0.0 | 0.00 | 0.29 | 0.29 | 97 | 1011.7 |
| 20260506205528 | 48 | 0 | 0.0 | 0.0 | 0.00 | 0.29 | 0.29 | 97 | 1011.7 |
| 20260506205025 | 48 | 0 | 0.0 | 0.0 | 0.00 | 0.29 | 0.29 | 97 | 1011.5 |
| 20260506204540 | 48 | 0 | 0.0 | 0.0 | 0.00 | 0.29 | 0.29 | 97 | 1011.5 |
| 20260506204025 | 48 | 0 | 0.0 | 0.0 | 0.00 | 0.29 | 0.29 | 97 | 1011.6 |
| 20260506203527 | 48 | 0 | 0.0 | 0.0 | 0.00 | 0.29 | 0.29 | 97 | 1011.5 |
| 20260506203041 | 48 | 0 | 0.0 | 0.0 | 0.00 | 0.29 | 0.29 | 97 | 1011.4 |
| 20260506202526 | 48 | 0 | 0.0 | 0.0 | 0.00 | 0.29 | 0.29 | 97 | 1011.3 |
| 20260506202026 | 48 | 0 | 0.0 | 0.0 | 0.00 | 0.29 | 0.29 | 97 | 1011.3 |
| 20260506201540 | 48 | 0 | 0.0 | 0.0 | 0.00 | 0.29 | 0.29 | 97 | 1011.3 |
| 20260506201027 | 48 | 0 | 0.0 | 0.0 | 0.00 | 0.29 | 0.29 | 97 | 1011.2 |
| 20260506200526 | 48 | 0 | 0.0 | 0.0 | 0.00 | 0.29 | 0.29 | 97 | 1011.2 |
| 20260506200040 | 48 | 0 | 0.0 | 0.0 | 0.00 | 0.29 | 0.29 | 97 | 1011.1 |
| 20260506195529 | 48 | 0 | 0.0 | 0.0 | 0.00 | 0.29 | 0.29 | 97 | 1011.0 |
| 20260506195026 | 48 | 0 | 0.0 | 0.0 | 0.00 | 0.29 | 0.29 | 97 | 1010.9 |
| 20260506194541 | 48 | 0 | 0.0 | 0.0 | 0.00 | 0.29 | 0.29 | 97 | 1010.8 |
| 20260506194025 | 49 | 0 | 0.0 | 0.0 | 0.00 | 0.29 | 0.29 | 97 | 1010.9 |
| 20260506193525 | 49 | 0 | 0.0 | 0.0 | 0.00 | 0.29 | 0.29 | 97 | 1010.8 |
| 20260506193042 | 49 | 0 | 0.0 | 0.0 | 0.00 | 0.29 | 0.29 | 97 | 1010.9 |
| 20260506192527 | 49 | 0 | 0.0 | 0.0 | 0.00 | 0.29 | 0.29 | 97 | 1010.7 |
| 20260506192029 | 49 | 0 | 0.0 | 0.0 | 0.00 | 0.29 | 0.29 | 97 | 1010.7 |
| 20260506191539 | 49 | 0 | 0.0 | 0.0 | 0.00 | 0.29 | 0.29 | 97 | 1010.7 |
| 20260506191026 | 49 | 0 | 0.0 | 0.0 | 0.00 | 0.29 | 0.29 | 97 | 1010.6 |
| 20260506190528 | 49 | 0 | 0.0 | 0.0 | 0.00 | 0.29 | 0.29 | 97 | 1010.6 |
| 20260506190041 | 49 | 0 | 0.0 | 0.0 | 0.00 | 0.29 | 0.29 | 97 | 1010.6 |
| 20260506185526 | 49 | 0 | 0.0 | 0.0 | 0.00 | 0.29 | 0.29 | 97 | 1010.6 |
| 20260506185026 | 50 | 0 | 0.0 | 0.0 | 0.00 | 0.29 | 0.29 | 97 | 1010.4 |
| 20260506184545 | 50 | 0 | 0.0 | 0.0 | 0.00 | 0.29 | 0.29 | 97 | 1010.4 |
| 20260506184026 | 50 | 0 | 0.0 | 0.0 | 0.00 | 0.29 | 0.29 | 97 | 1010.3 |
| 20260506183526 | 50 | 0 | 0.0 | 0.0 | 0.00 | 0.29 | 0.29 | 97 | 1010.2 |
| 20260506183038 | 50 | 0 | 0.0 | 0.0 | 0.00 | 0.29 | 0.29 | 97 | 1010.3 |
| 20260506182525 | 50 | 0 | 0.0 | 0.0 | 0.00 | 0.29 | 0.29 | 97 | 1010.2 |
| 20260506182027 | 50 | 0 | 0.0 | 0.0 | 0.00 | 0.29 | 0.29 | 97 | 1010.2 |
| 20260506181538 | 50 | 0 | 0.0 | 0.0 | 0.00 | 0.29 | 0.29 | 97 | 1010.2 |
| 20260506181027 | 50 | 0 | 0.0 | 0.0 | 0.00 | 0.29 | 0.29 | 97 | 1010.2 |
| 20260506180526 | 50 | 0 | 0.0 | 0.0 | 0.00 | 0.29 | 0.29 | 97 | 1010.1 |
| 20260506180038 | 50 | 0 | 0.0 | 0.0 | 0.00 | 0.29 | 0.29 | 97 | 1010.1 |
| 20260506175526 | 50 | 0 | 0.0 | 0.0 | 0.00 | 0.29 | 0.29 | 97 | 1010.0 |
| 20260506175025 | 50 | 0 | 0.0 | 0.0 | 0.00 | 0.29 | 0.29 | 97 | 1010.1 |
| 20260506174537 | 50 | 0 | 0.0 | 0.0 | 0.00 | 0.29 | 0.29 | 97 | 1010.0 |
| 20260506174028 | 50 | 0 | 0.0 | 0.0 | 0.00 | 0.29 | 0.29 | 97 | 1010.0 |
| 20260506173525 | 51 | 0 | 0.0 | 0.0 | 0.00 | 0.29 | 0.28 | 97 | 1009.9 |
| 20260506173055 | 51 | 0 | 0.0 | 0.0 | 0.00 | 0.29 | 0.28 | 97 | 1009.7 |
| 20260506172525 | 51 | 0 | 0.0 | 0.0 | 0.00 | 0.29 | 0.28 | 97 | 1009.7 |
| 20260506172026 | 51 | 0 | 0.0 | 0.0 | 0.00 | 0.29 | 0.28 | 97 | 1009.7 |
| 20260506171537 | 51 | 0 | 0.0 | 0.0 | 0.00 | 0.29 | 0.28 | 97 | 1009.6 |
| 20260506171029 | 51 | 0 | 0.0 | 0.0 | 0.00 | 0.29 | 0.28 | 97 | 1009.6 |
| 20260506170525 | 51 | 0 | 0.0 | 0.0 | 0.00 | 0.29 | 0.28 | 97 | 1009.6 |
| 20260506170042 | 51 | 0 | 0.0 | 0.0 | 0.00 | 0.29 | 0.28 | 97 | 1009.5 |
| 20260506165526 | 51 | 0 | 0.0 | 0.0 | 0.00 | 0.29 | 0.28 | 97 | 1009.5 |
| 20260506165026 | 51 | 0 | 0.0 | 0.0 | 0.00 | 0.29 | 0.28 | 97 | 1009.5 |
| 20260506164541 | 50 | 0 | 0.0 | 0.0 | 0.00 | 0.29 | 0.28 | 97 | 1009.4 |
| 20260506164027 | 50 | 0 | 0.0 | 0.0 | 0.00 | 0.29 | 0.28 | 97 | 1009.4 |
| 20260506163532 | 50 | 0 | 0.0 | 0.0 | 0.00 | 0.29 | 0.28 | 97 | 1009.4 |
| 20260506163040 | 50 | 0 | 0.0 | 0.0 | 0.00 | 0.29 | 0.28 | 97 | 1009.3 |
| 20260506162526 | 50 | 0 | 0.0 | 0.0 | 0.00 | 0.28 | 0.27 | 97 | 1009.3 |
| 20260506162028 | 50 | 0 | 0.0 | 0.0 | 0.00 | 0.28 | 0.27 | 97 | 1009.3 |
| 20260506161538 | 50 | 0 | 0.0 | 0.0 | 0.00 | 0.28 | 0.27 | 97 | 1009.3 |
| 20260506161025 | 50 | 0 | 0.0 | 0.0 | 0.00 | 0.28 | 0.27 | 97 | 1009.4 |
| 20260506160525 | 50 | 0 | 0.0 | 0.0 | 0.00 | 0.28 | 0.27 | 97 | 1009.4 |
| 20260506160038 | 50 | 0 | 0.0 | 0.0 | 0.00 | 0.28 | 0.27 | 97 | 1009.4 |
| 20260506155525 | 50 | 0 | 0.0 | 0.0 | 0.00 | 0.29 | 0.27 | 97 | 1009.4 |
| 20260506155026 | 50 | 0 | 0.0 | 0.0 | 0.00 | 0.29 | 0.27 | 97 | 1009.4 |
| 20260506154549 | 50 | 0 | 0.0 | 0.0 | 0.00 | 0.29 | 0.27 | 97 | 1009.4 |
| 20260506154026 | 50 | 0 | 0.0 | 0.0 | 0.00 | 0.29 | 0.27 | 97 | 1009.4 |
| 20260506153528 | 50 | 0 | 0.0 | 0.0 | 0.00 | 0.29 | 0.27 | 97 | 1009.3 |
| 20260506153045 | 50 | 0 | 0.0 | 0.0 | 0.00 | 0.29 | 0.27 | 97 | 1009.3 |